sensor_id;sensor_type;location;lat;lon;timestamp;temperature;humidity
65046;DHT22;54657;52.022;5.534;2022-11-11T00:00:46;11.50;80.50
65046;DHT22;54657;52.022;5.534;2022-11-11T00:03:11;11.50;80.20
65046;DHT22;54657;52.022;5.534;2022-11-11T00:05:37;11.60;80.20
65046;DHT22;54657;52.022;5.534;2022-11-11T00:08:03;11.60;80.00
65046;DHT22;54657;52.022;5.534;2022-11-11T00:10:29;11.60;80.10
65046;DHT22;54657;52.022;5.534;2022-11-11T00:13:02;11.60;80.10
65046;DHT22;54657;52.022;5.534;2022-11-11T00:15:28;11.60;80.20
65046;DHT22;54657;52.022;5.534;2022-11-11T00:17:54;11.70;80.10
65046;DHT22;54657;52.022;5.534;2022-11-11T00:20:38;11.70;80.00
65046;DHT22;54657;52.022;5.534;2022-11-11T00:23:25;11.70;79.90
65046;DHT22;54657;52.022;5.534;2022-11-11T00:26:12;11.60;80.60
65046;DHT22;54657;52.022;5.534;2022-11-11T00:28:38;11.60;80.40
65046;DHT22;54657;52.022;5.534;2022-11-11T00:31:05;11.60;80.30
65046;DHT22;54657;52.022;5.534;2022-11-11T00:33:31;11.60;80.70
65046;DHT22;54657;52.022;5.534;2022-11-11T00:35:57;11.60;80.50
65046;DHT22;54657;52.022;5.534;2022-11-11T00:38:23;11.60;80.80
65046;DHT22;54657;52.022;5.534;2022-11-11T00:41:08;11.60;80.70
65046;DHT22;54657;52.022;5.534;2022-11-11T00:43:34;11.60;81.00
65046;DHT22;54657;52.022;5.534;2022-11-11T00:45:59;11.60;80.80
65046;DHT22;54657;52.022;5.534;2022-11-11T00:48:46;11.70;81.00
65046;DHT22;54657;52.022;5.534;2022-11-11T00:51:31;11.70;81.10
65046;DHT22;54657;52.022;5.534;2022-11-11T00:53:56;11.70;80.60
65046;DHT22;54657;52.022;5.534;2022-11-11T00:56:22;11.70;80.60
65046;DHT22;54657;52.022;5.534;2022-11-11T00:58:48;11.80;80.40
65046;DHT22;54657;52.022;5.534;2022-11-11T01:01:14;11.80;80.20
65046;DHT22;54657;52.022;5.534;2022-11-11T01:03:40;11.80;80.30
65046;DHT22;54657;52.022;5.534;2022-11-11T01:06:06;11.90;80.20
65046;DHT22;54657;52.022;5.534;2022-11-11T01:08:32;11.80;80.30
65046;DHT22;54657;52.022;5.534;2022-11-11T01:10:58;11.90;80.10
65046;DHT22;54657;52.022;5.534;2022-11-11T01:13:29;11.80;80.80
65046;DHT22;54657;52.022;5.534;2022-11-11T01:16:04;11.80;80.90
65046;DHT22;54657;52.022;5.534;2022-11-11T01:18:30;11.80;81.20
65046;DHT22;54657;52.022;5.534;2022-11-11T01:21:02;11.80;80.70
65046;DHT22;54657;52.022;5.534;2022-11-11T01:23:29;11.80;80.80
65046;DHT22;54657;52.022;5.534;2022-11-11T01:26:01;11.80;80.60
65046;DHT22;54657;52.022;5.534;2022-11-11T01:28:27;11.90;80.90
65046;DHT22;54657;52.022;5.534;2022-11-11T01:30:52;11.90;80.60
65046;DHT22;54657;52.022;5.534;2022-11-11T01:33:18;11.90;80.50
65046;DHT22;54657;52.022;5.534;2022-11-11T01:35:44;11.90;80.70
65046;DHT22;54657;52.022;5.534;2022-11-11T01:38:10;11.90;80.50
65046;DHT22;54657;52.022;5.534;2022-11-11T01:40:43;11.90;80.80
65046;DHT22;54657;52.022;5.534;2022-11-11T01:43:17;11.90;81.00
65046;DHT22;54657;52.022;5.534;2022-11-11T01:45:59;11.90;81.40
65046;DHT22;54657;52.022;5.534;2022-11-11T01:48:44;11.90;80.90
65046;DHT22;54657;52.022;5.534;2022-11-11T01:51:41;11.90;81.50
65046;DHT22;54657;52.022;5.534;2022-11-11T01:54:19;11.90;81.00
65046;DHT22;54657;52.022;5.534;2022-11-11T01:56:48;11.80;81.40
65046;DHT22;54657;52.022;5.534;2022-11-11T01:59:16;11.80;81.30
65046;DHT22;54657;52.022;5.534;2022-11-11T02:01:43;11.90;81.50
65046;DHT22;54657;52.022;5.534;2022-11-11T02:04:09;11.90;81.00
65046;DHT22;54657;52.022;5.534;2022-11-11T02:06:56;11.90;81.00
65046;DHT22;54657;52.022;5.534;2022-11-11T02:09:23;11.90;81.00
65046;DHT22;54657;52.022;5.534;2022-11-11T02:11:50;11.90;81.00
65046;DHT22;54657;52.022;5.534;2022-11-11T02:14:42;11.90;81.20
65046;DHT22;54657;52.022;5.534;2022-11-11T02:17:11;11.90;81.00
65046;DHT22;54657;52.022;5.534;2022-11-11T02:19:50;11.90;81.20
65046;DHT22;54657;52.022;5.534;2022-11-11T02:22:47;11.90;81.90
65046;DHT22;54657;52.022;5.534;2022-11-11T02:25:19;11.90;82.30
65046;DHT22;54657;52.022;5.534;2022-11-11T02:27:49;11.90;81.40
65046;DHT22;54657;52.022;5.534;2022-11-11T02:30:17;11.90;81.20
65046;DHT22;54657;52.022;5.534;2022-11-11T02:32:46;11.90;81.10
65046;DHT22;54657;52.022;5.534;2022-11-11T02:35:28;11.90;81.10
65046;DHT22;54657;52.022;5.534;2022-11-11T02:37:54;12.00;81.70
65046;DHT22;54657;52.022;5.534;2022-11-11T02:40:24;12.00;81.20
65046;DHT22;54657;52.022;5.534;2022-11-11T02:42:51;12.00;81.00
65046;DHT22;54657;52.022;5.534;2022-11-11T02:45:16;12.00;81.00
65046;DHT22;54657;52.022;5.534;2022-11-11T02:47:42;12.00;80.90
65046;DHT22;54657;52.022;5.534;2022-11-11T02:50:08;12.00;80.80
65046;DHT22;54657;52.022;5.534;2022-11-11T02:52:34;12.10;80.80
65046;DHT22;54657;52.022;5.534;2022-11-11T02:55:01;12.00;80.80
65046;DHT22;54657;52.022;5.534;2022-11-11T02:57:27;12.10;80.80
65046;DHT22;54657;52.022;5.534;2022-11-11T02:59:53;12.00;81.10
65046;DHT22;54657;52.022;5.534;2022-11-11T03:02:19;11.90;81.50
65046;DHT22;54657;52.022;5.534;2022-11-11T03:04:44;12.00;81.10
65046;DHT22;54657;52.022;5.534;2022-11-11T03:07:10;12.00;80.90
65046;DHT22;54657;52.022;5.534;2022-11-11T03:09:35;12.00;81.00
65046;DHT22;54657;52.022;5.534;2022-11-11T03:12:01;12.00;81.20
65046;DHT22;54657;52.022;5.534;2022-11-11T03:14:26;12.00;81.20
65046;DHT22;54657;52.022;5.534;2022-11-11T03:16:52;11.90;81.20
65046;DHT22;54657;52.022;5.534;2022-11-11T03:19:36;11.90;81.40
65046;DHT22;54657;52.022;5.534;2022-11-11T03:22:02;11.90;81.20
65046;DHT22;54657;52.022;5.534;2022-11-11T03:24:29;11.90;81.30
65046;DHT22;54657;52.022;5.534;2022-11-11T03:27:14;12.00;81.20
65046;DHT22;54657;52.022;5.534;2022-11-11T03:29:40;11.90;81.30
65046;DHT22;54657;52.022;5.534;2022-11-11T03:32:07;12.00;81.10
65046;DHT22;54657;52.022;5.534;2022-11-11T03:34:33;12.00;80.90
65046;DHT22;54657;52.022;5.534;2022-11-11T03:36:58;12.00;81.00
65046;DHT22;54657;52.022;5.534;2022-11-11T03:39:43;12.00;80.90
65046;DHT22;54657;52.022;5.534;2022-11-11T03:42:08;12.10;80.90
65046;DHT22;54657;52.022;5.534;2022-11-11T03:44:34;12.10;80.80
65046;DHT22;54657;52.022;5.534;2022-11-11T03:46:59;12.00;80.80
65046;DHT22;54657;52.022;5.534;2022-11-11T03:49:25;11.90;81.00
65046;DHT22;54657;52.022;5.534;2022-11-11T03:51:50;12.00;80.90
65046;DHT22;54657;52.022;5.534;2022-11-11T03:54:16;12.00;81.00
65046;DHT22;54657;52.022;5.534;2022-11-11T03:56:41;12.00;80.70
65046;DHT22;54657;52.022;5.534;2022-11-11T03:59:07;12.10;80.80
65046;DHT22;54657;52.022;5.534;2022-11-11T04:01:32;12.10;80.90
65046;DHT22;54657;52.022;5.534;2022-11-11T04:04:16;12.10;80.80
65046;DHT22;54657;52.022;5.534;2022-11-11T04:07:01;12.10;80.70
65046;DHT22;54657;52.022;5.534;2022-11-11T04:09:45;12.10;80.80
65046;DHT22;54657;52.022;5.534;2022-11-11T04:12:30;12.10;81.00
65046;DHT22;54657;52.022;5.534;2022-11-11T04:14:56;12.10;80.90
65046;DHT22;54657;52.022;5.534;2022-11-11T04:17:40;12.10;80.80
65046;DHT22;54657;52.022;5.534;2022-11-11T04:20:06;12.10;80.80
65046;DHT22;54657;52.022;5.534;2022-11-11T04:22:50;12.20;80.80
65046;DHT22;54657;52.022;5.534;2022-11-11T04:25:18;12.10;80.60
65046;DHT22;54657;52.022;5.534;2022-11-11T04:28:02;12.10;80.70
65046;DHT22;54657;52.022;5.534;2022-11-11T04:30:46;12.10;80.80
65046;DHT22;54657;52.022;5.534;2022-11-11T04:33:12;12.10;80.60
65046;DHT22;54657;52.022;5.534;2022-11-11T04:35:38;12.10;80.80
65046;DHT22;54657;52.022;5.534;2022-11-11T04:38:04;12.10;80.80
65046;DHT22;54657;52.022;5.534;2022-11-11T04:40:50;12.10;80.80
65046;DHT22;54657;52.022;5.534;2022-11-11T04:43:29;12.10;80.80
65046;DHT22;54657;52.022;5.534;2022-11-11T04:46:00;12.10;81.10
65046;DHT22;54657;52.022;5.534;2022-11-11T04:48:26;12.00;81.10
65046;DHT22;54657;52.022;5.534;2022-11-11T04:50:52;12.10;81.00
65046;DHT22;54657;52.022;5.534;2022-11-11T04:53:18;12.00;81.10
65046;DHT22;54657;52.022;5.534;2022-11-11T04:55:44;12.00;81.00
65046;DHT22;54657;52.022;5.534;2022-11-11T04:58:33;12.00;81.30
65046;DHT22;54657;52.022;5.534;2022-11-11T05:00:59;12.00;81.10
65046;DHT22;54657;52.022;5.534;2022-11-11T05:03:25;12.00;81.10
65046;DHT22;54657;52.022;5.534;2022-11-11T05:05:57;12.00;81.00
65046;DHT22;54657;52.022;5.534;2022-11-11T05:08:51;12.00;81.00
65046;DHT22;54657;52.022;5.534;2022-11-11T05:11:22;12.00;80.90
65046;DHT22;54657;52.022;5.534;2022-11-11T05:13:48;12.10;80.90
65046;DHT22;54657;52.022;5.534;2022-11-11T05:16:37;12.00;80.80
65046;DHT22;54657;52.022;5.534;2022-11-11T05:19:21;12.00;81.00
65046;DHT22;54657;52.022;5.534;2022-11-11T05:22:15;11.90;81.30
65046;DHT22;54657;52.022;5.534;2022-11-11T05:24:43;11.80;81.30
65046;DHT22;54657;52.022;5.534;2022-11-11T05:27:27;11.90;81.30
65046;DHT22;54657;52.022;5.534;2022-11-11T05:29:53;11.90;81.20
65046;DHT22;54657;52.022;5.534;2022-11-11T05:32:20;11.80;81.20
65046;DHT22;54657;52.022;5.534;2022-11-11T05:34:46;11.80;81.10
65046;DHT22;54657;52.022;5.534;2022-11-11T05:37:12;11.90;81.00
65046;DHT22;54657;52.022;5.534;2022-11-11T05:39:37;11.80;80.90
65046;DHT22;54657;52.022;5.534;2022-11-11T05:42:03;11.90;81.10
65046;DHT22;54657;52.022;5.534;2022-11-11T05:44:29;11.80;80.90
65046;DHT22;54657;52.022;5.534;2022-11-11T05:46:54;11.70;81.20
65046;DHT22;54657;52.022;5.534;2022-11-11T05:49:20;11.60;81.30
65046;DHT22;54657;52.022;5.534;2022-11-11T05:51:46;11.60;81.40
65046;DHT22;54657;52.022;5.534;2022-11-11T05:54:12;11.60;81.60
65046;DHT22;54657;52.022;5.534;2022-11-11T05:56:39;11.60;81.60
65046;DHT22;54657;52.022;5.534;2022-11-11T05:59:06;11.50;81.50
65046;DHT22;54657;52.022;5.534;2022-11-11T06:01:32;11.50;81.60
65046;DHT22;54657;52.022;5.534;2022-11-11T06:03:58;11.50;81.50
65046;DHT22;54657;52.022;5.534;2022-11-11T06:06:23;11.50;81.50
65046;DHT22;54657;52.022;5.534;2022-11-11T06:08:49;11.60;81.50
65046;DHT22;54657;52.022;5.534;2022-11-11T06:11:14;11.50;81.30
65046;DHT22;54657;52.022;5.534;2022-11-11T06:13:40;11.60;81.30
65046;DHT22;54657;52.022;5.534;2022-11-11T06:16:06;11.50;81.20
65046;DHT22;54657;52.022;5.534;2022-11-11T06:18:32;11.50;81.30
65046;DHT22;54657;52.022;5.534;2022-11-11T06:20:58;11.40;81.30
65046;DHT22;54657;52.022;5.534;2022-11-11T06:23:25;11.50;81.40
65046;DHT22;54657;52.022;5.534;2022-11-11T06:25:51;11.40;81.40
65046;DHT22;54657;52.022;5.534;2022-11-11T06:28:35;11.40;81.60
65046;DHT22;54657;52.022;5.534;2022-11-11T06:31:02;11.30;81.70
65046;DHT22;54657;52.022;5.534;2022-11-11T06:33:28;11.30;81.70
65046;DHT22;54657;52.022;5.534;2022-11-11T06:35:53;11.30;81.80
65046;DHT22;54657;52.022;5.534;2022-11-11T06:38:19;11.30;81.60
65046;DHT22;54657;52.022;5.534;2022-11-11T06:40:45;11.30;81.60
65046;DHT22;54657;52.022;5.534;2022-11-11T06:43:11;11.30;81.60
65046;DHT22;54657;52.022;5.534;2022-11-11T06:45:37;11.30;81.70
65046;DHT22;54657;52.022;5.534;2022-11-11T06:48:03;11.20;81.80
65046;DHT22;54657;52.022;5.534;2022-11-11T06:50:31;11.20;81.80
65046;DHT22;54657;52.022;5.534;2022-11-11T06:53:03;11.30;81.80
65046;DHT22;54657;52.022;5.534;2022-11-11T06:55:29;11.30;81.70
65046;DHT22;54657;52.022;5.534;2022-11-11T06:58:00;11.30;81.50
65046;DHT22;54657;52.022;5.534;2022-11-11T07:00:28;11.30;81.50
65046;DHT22;54657;52.022;5.534;2022-11-11T07:02:57;11.30;81.40
65046;DHT22;54657;52.022;5.534;2022-11-11T07:05:22;11.40;81.30
65046;DHT22;54657;52.022;5.534;2022-11-11T07:07:48;11.50;81.00
65046;DHT22;54657;52.022;5.534;2022-11-11T07:10:14;11.40;81.00
65046;DHT22;54657;52.022;5.534;2022-11-11T07:12:40;11.40;81.30
65046;DHT22;54657;52.022;5.534;2022-11-11T07:15:07;11.40;81.30
65046;DHT22;54657;52.022;5.534;2022-11-11T07:17:33;11.30;82.00
65046;DHT22;54657;52.022;5.534;2022-11-11T07:19:58;11.30;81.30
65046;DHT22;54657;52.022;5.534;2022-11-11T07:22:24;11.30;81.30
65046;DHT22;54657;52.022;5.534;2022-11-11T07:24:49;11.30;81.40
65046;DHT22;54657;52.022;5.534;2022-11-11T07:27:15;11.30;81.30
65046;DHT22;54657;52.022;5.534;2022-11-11T07:29:40;11.40;81.40
65046;DHT22;54657;52.022;5.534;2022-11-11T07:32:06;11.40;81.10
65046;DHT22;54657;52.022;5.534;2022-11-11T07:34:32;11.40;81.00
65046;DHT22;54657;52.022;5.534;2022-11-11T07:36:57;11.40;81.10
65046;DHT22;54657;52.022;5.534;2022-11-11T07:39:23;11.50;81.20
65046;DHT22;54657;52.022;5.534;2022-11-11T07:41:48;11.40;81.10
65046;DHT22;54657;52.022;5.534;2022-11-11T07:44:14;11.40;81.00
65046;DHT22;54657;52.022;5.534;2022-11-11T07:46:39;11.40;81.20
65046;DHT22;54657;52.022;5.534;2022-11-11T07:49:08;11.40;81.20
65046;DHT22;54657;52.022;5.534;2022-11-11T07:51:34;11.30;81.30
65046;DHT22;54657;52.022;5.534;2022-11-11T07:53:59;11.30;81.40
65046;DHT22;54657;52.022;5.534;2022-11-11T07:56:25;11.40;81.30
65046;DHT22;54657;52.022;5.534;2022-11-11T07:58:50;11.30;81.20
65046;DHT22;54657;52.022;5.534;2022-11-11T08:01:16;11.30;81.50
65046;DHT22;54657;52.022;5.534;2022-11-11T08:03:42;11.30;81.50
65046;DHT22;54657;52.022;5.534;2022-11-11T08:06:18;11.30;81.60
65046;DHT22;54657;52.022;5.534;2022-11-11T08:08:44;11.40;81.50
65046;DHT22;54657;52.022;5.534;2022-11-11T08:11:10;11.30;81.30
65046;DHT22;54657;52.022;5.534;2022-11-11T08:13:36;11.40;81.30
65046;DHT22;54657;52.022;5.534;2022-11-11T08:16:06;11.40;81.40
65046;DHT22;54657;52.022;5.534;2022-11-11T08:18:32;11.30;81.50
65046;DHT22;54657;52.022;5.534;2022-11-11T08:20:58;11.40;81.50
65046;DHT22;54657;52.022;5.534;2022-11-11T08:23:24;11.40;81.40
65046;DHT22;54657;52.022;5.534;2022-11-11T08:26:01;11.40;81.40
65046;DHT22;54657;52.022;5.534;2022-11-11T08:28:27;11.40;81.30
65046;DHT22;54657;52.022;5.534;2022-11-11T08:30:53;11.40;81.50
65046;DHT22;54657;52.022;5.534;2022-11-11T08:33:19;11.30;81.50
65046;DHT22;54657;52.022;5.534;2022-11-11T08:35:45;11.30;81.70
65046;DHT22;54657;52.022;5.534;2022-11-11T08:38:11;11.30;81.70
65046;DHT22;54657;52.022;5.534;2022-11-11T08:40:38;11.30;81.60
65046;DHT22;54657;52.022;5.534;2022-11-11T08:43:03;11.30;81.70
65046;DHT22;54657;52.022;5.534;2022-11-11T08:45:29;11.30;81.80
65046;DHT22;54657;52.022;5.534;2022-11-11T08:47:55;11.30;81.70
65046;DHT22;54657;52.022;5.534;2022-11-11T08:50:20;11.30;81.90
65046;DHT22;54657;52.022;5.534;2022-11-11T08:52:50;11.30;81.80
65046;DHT22;54657;52.022;5.534;2022-11-11T08:55:17;11.30;81.90
65046;DHT22;54657;52.022;5.534;2022-11-11T08:57:42;11.30;81.70
65046;DHT22;54657;52.022;5.534;2022-11-11T09:00:09;11.30;81.70
65046;DHT22;54657;52.022;5.534;2022-11-11T09:02:36;11.20;81.90
65046;DHT22;54657;52.022;5.534;2022-11-11T09:05:02;11.20;81.90
65046;DHT22;54657;52.022;5.534;2022-11-11T09:07:28;11.20;81.90
65046;DHT22;54657;52.022;5.534;2022-11-11T09:09:53;11.20;81.80
65046;DHT22;54657;52.022;5.534;2022-11-11T09:12:19;11.30;81.70
65046;DHT22;54657;52.022;5.534;2022-11-11T09:14:45;11.30;81.60
65046;DHT22;54657;52.022;5.534;2022-11-11T09:17:11;11.30;81.60
65046;DHT22;54657;52.022;5.534;2022-11-11T09:19:36;11.30;81.60
65046;DHT22;54657;52.022;5.534;2022-11-11T09:22:02;11.30;81.70
65046;DHT22;54657;52.022;5.534;2022-11-11T09:24:28;11.40;81.60
65046;DHT22;54657;52.022;5.534;2022-11-11T09:26:53;11.40;81.50
65046;DHT22;54657;52.022;5.534;2022-11-11T09:29:19;11.40;81.40
65046;DHT22;54657;52.022;5.534;2022-11-11T09:31:45;11.40;81.40
65046;DHT22;54657;52.022;5.534;2022-11-11T09:34:12;11.40;81.30
65046;DHT22;54657;52.022;5.534;2022-11-11T09:36:37;11.50;81.30
65046;DHT22;54657;52.022;5.534;2022-11-11T09:39:03;11.60;81.10
65046;DHT22;54657;52.022;5.534;2022-11-11T09:52:24;11.80;80.50
65046;DHT22;54657;52.022;5.534;2022-11-11T09:55:26;11.80;80.40
65046;DHT22;54657;52.022;5.534;2022-11-11T09:57:57;11.80;80.00
65046;DHT22;54657;52.022;5.534;2022-11-11T10:00:28;11.90;80.10
65046;DHT22;54657;52.022;5.534;2022-11-11T10:05:51;11.90;80.10
65046;DHT22;54657;52.022;5.534;2022-11-11T10:08:41;11.90;80.10
65046;DHT22;54657;52.022;5.534;2022-11-11T10:11:15;12.00;80.10
65046;DHT22;54657;52.022;5.534;2022-11-11T10:13:43;12.10;80.00
65046;DHT22;54657;52.022;5.534;2022-11-11T10:19:26;12.10;79.80
65046;DHT22;54657;52.022;5.534;2022-11-11T10:21:57;12.10;79.60
65046;DHT22;54657;52.022;5.534;2022-11-11T10:24:39;12.20;79.70
65046;DHT22;54657;52.022;5.534;2022-11-11T10:27:14;12.20;79.40
65046;DHT22;54657;52.022;5.534;2022-11-11T10:29:42;12.20;79.40
65046;DHT22;54657;52.022;5.534;2022-11-11T10:32:37;12.30;79.50
65046;DHT22;54657;52.022;5.534;2022-11-11T10:35:16;12.40;79.20
65046;DHT22;54657;52.022;5.534;2022-11-11T10:37:42;12.40;79.30
65046;DHT22;54657;52.022;5.534;2022-11-11T10:41:02;12.40;79.10
65046;DHT22;54657;52.022;5.534;2022-11-11T10:43:21;12.50;79.10
65046;DHT22;54657;52.022;5.534;2022-11-11T10:48:37;12.50;79.00
65046;DHT22;54657;52.022;5.534;2022-11-11T10:51:05;12.50;78.90
65046;DHT22;54657;52.022;5.534;2022-11-11T10:54:09;12.60;79.00
65046;DHT22;54657;52.022;5.534;2022-11-11T10:59:20;12.80;78.40
65046;DHT22;54657;52.022;5.534;2022-11-11T11:04:52;12.90;78.40
65046;DHT22;54657;52.022;5.534;2022-11-11T11:07:33;12.90;78.50
65046;DHT22;54657;52.022;5.534;2022-11-11T11:10:19;12.90;78.50
65046;DHT22;54657;52.022;5.534;2022-11-11T11:15:59;12.90;77.70
65046;DHT22;54657;52.022;5.534;2022-11-11T11:18:27;12.90;78.40
65046;DHT22;54657;52.022;5.534;2022-11-11T11:20:59;12.90;78.70
65046;DHT22;54657;52.022;5.534;2022-11-11T11:23:45;13.00;78.60
65046;DHT22;54657;52.022;5.534;2022-11-11T11:26:13;13.00;77.70
65046;DHT22;54657;52.022;5.534;2022-11-11T11:28:56;13.00;78.60
65046;DHT22;54657;52.022;5.534;2022-11-11T11:31:36;13.10;78.30
65046;DHT22;54657;52.022;5.534;2022-11-11T11:34:02;13.10;77.80
65046;DHT22;54657;52.022;5.534;2022-11-11T11:36:28;13.00;78.30
65046;DHT22;54657;52.022;5.534;2022-11-11T11:38:54;13.00;78.40
65046;DHT22;54657;52.022;5.534;2022-11-11T11:41:40;13.00;78.50
65046;DHT22;54657;52.022;5.534;2022-11-11T11:44:26;13.10;77.90
65046;DHT22;54657;52.022;5.534;2022-11-11T11:46:57;13.10;78.00
65046;DHT22;54657;52.022;5.534;2022-11-11T11:49:50;13.10;78.40
65046;DHT22;54657;52.022;5.534;2022-11-11T11:52:42;13.30;78.20
65046;DHT22;54657;52.022;5.534;2022-11-11T11:55:17;13.30;78.20
65046;DHT22;54657;52.022;5.534;2022-11-11T12:00:28;13.30;78.10
65046;DHT22;54657;52.022;5.534;2022-11-11T12:11:27;13.30;78.00
65046;DHT22;54657;52.022;5.534;2022-11-11T12:25:09;13.30;77.50
65046;DHT22;54657;52.022;5.534;2022-11-11T12:30:29;13.30;78.00
65046;DHT22;54657;52.022;5.534;2022-11-11T12:33:05;13.20;76.80
65046;DHT22;54657;52.022;5.534;2022-11-11T12:35:56;13.20;78.20
65046;DHT22;54657;52.022;5.534;2022-11-11T12:46:41;13.50;78.70
65046;DHT22;54657;52.022;5.534;2022-11-11T12:49:39;13.60;77.70
65046;DHT22;54657;52.022;5.534;2022-11-11T13:01:09;13.70;76.40
65046;DHT22;54657;52.022;5.534;2022-11-11T13:08:43;13.90;76.90
65046;DHT22;54657;52.022;5.534;2022-11-11T13:17:00;13.80;75.80
65046;DHT22;54657;52.022;5.534;2022-11-11T13:19:36;13.80;76.80
65046;DHT22;54657;52.022;5.534;2022-11-11T13:22:26;13.90;76.30
65046;DHT22;54657;52.022;5.534;2022-11-11T13:24:54;13.90;76.20
65046;DHT22;54657;52.022;5.534;2022-11-11T13:30:21;14.00;75.20
65046;DHT22;54657;52.022;5.534;2022-11-11T13:35:57;13.90;76.30
65046;DHT22;54657;52.022;5.534;2022-11-11T13:38:43;13.90;76.00
65046;DHT22;54657;52.022;5.534;2022-11-11T13:41:09;14.00;76.10
65046;DHT22;54657;52.022;5.534;2022-11-11T13:43:41;14.00;76.20
65046;DHT22;54657;52.022;5.534;2022-11-11T13:46:37;14.00;75.90
65046;DHT22;54657;52.022;5.534;2022-11-11T13:49:02;14.10;75.70
65046;DHT22;54657;52.022;5.534;2022-11-11T13:56:47;14.10;75.50
65046;DHT22;54657;52.022;5.534;2022-11-11T14:20:52;14.30;75.00
65046;DHT22;54657;52.022;5.534;2022-11-11T14:36:18;14.30;75.60
65046;DHT22;54657;52.022;5.534;2022-11-11T14:38:50;14.30;75.50
65046;DHT22;54657;52.022;5.534;2022-11-11T14:41:43;14.30;75.60
65046;DHT22;54657;52.022;5.534;2022-11-11T14:49:43;14.20;75.50
65046;DHT22;54657;52.022;5.534;2022-11-11T14:52:25;14.20;75.70
65046;DHT22;54657;52.022;5.534;2022-11-11T15:00:17;14.10;75.60
65046;DHT22;54657;52.022;5.534;2022-11-11T15:03:06;14.10;75.30
65046;DHT22;54657;52.022;5.534;2022-11-11T15:25:51;13.90;75.10
65046;DHT22;54657;52.022;5.534;2022-11-11T15:30:52;13.80;74.20
65046;DHT22;54657;52.022;5.534;2022-11-11T15:33:35;13.80;75.70
65046;DHT22;54657;52.022;5.534;2022-11-11T15:38:40;13.80;75.30
65046;DHT22;54657;52.022;5.534;2022-11-11T15:41:22;13.70;75.40
65046;DHT22;54657;52.022;5.534;2022-11-11T15:43:48;13.70;74.90
65046;DHT22;54657;52.022;5.534;2022-11-11T15:46:35;13.70;75.30
65046;DHT22;54657;52.022;5.534;2022-11-11T15:49:02;13.70;74.70
65046;DHT22;54657;52.022;5.534;2022-11-11T15:51:30;13.70;75.30
65046;DHT22;54657;52.022;5.534;2022-11-11T15:56:42;13.70;74.60
65046;DHT22;54657;52.022;5.534;2022-11-11T15:59:38;13.70;75.00
65046;DHT22;54657;52.022;5.534;2022-11-11T16:02:12;13.70;75.40
65046;DHT22;54657;52.022;5.534;2022-11-11T16:04:50;13.70;74.90
65046;DHT22;54657;52.022;5.534;2022-11-11T16:07:25;13.70;74.80
65046;DHT22;54657;52.022;5.534;2022-11-11T16:09:52;13.60;75.00
65046;DHT22;54657;52.022;5.534;2022-11-11T16:12:24;13.50;75.20
65046;DHT22;54657;52.022;5.534;2022-11-11T16:14:52;13.40;75.30
65046;DHT22;54657;52.022;5.534;2022-11-11T16:17:19;13.30;75.50
65046;DHT22;54657;52.022;5.534;2022-11-11T16:19:46;13.30;75.60
65046;DHT22;54657;52.022;5.534;2022-11-11T16:22:26;13.30;75.50
65046;DHT22;54657;52.022;5.534;2022-11-11T16:24:54;13.20;75.10
65046;DHT22;54657;52.022;5.534;2022-11-11T16:27:28;13.20;75.70
65046;DHT22;54657;52.022;5.534;2022-11-11T16:29:55;13.20;75.80
65046;DHT22;54657;52.022;5.534;2022-11-11T16:34:50;13.10;75.90
65046;DHT22;54657;52.022;5.534;2022-11-11T16:37:17;13.10;75.80
65046;DHT22;54657;52.022;5.534;2022-11-11T16:39:44;13.10;75.90
65046;DHT22;54657;52.022;5.534;2022-11-11T16:44:49;13.00;75.50
65046;DHT22;54657;52.022;5.534;2022-11-11T16:57:58;12.80;76.00
65046;DHT22;54657;52.022;5.534;2022-11-11T17:00:24;12.70;76.20
65046;DHT22;54657;52.022;5.534;2022-11-11T17:08:33;12.50;75.90
65046;DHT22;54657;52.022;5.534;2022-11-11T17:10:59;12.40;76.60
65046;DHT22;54657;52.022;5.534;2022-11-11T17:13:27;12.40;76.90
65046;DHT22;54657;52.022;5.534;2022-11-11T17:15:55;12.30;76.90
65046;DHT22;54657;52.022;5.534;2022-11-11T17:18:23;12.30;77.10
65046;DHT22;54657;52.022;5.534;2022-11-11T17:20:49;12.30;77.10
65046;DHT22;54657;52.022;5.534;2022-11-11T17:23:16;12.20;77.00
65046;DHT22;54657;52.022;5.534;2022-11-11T17:25:42;12.20;77.10
65046;DHT22;54657;52.022;5.534;2022-11-11T17:28:18;12.10;77.20
65046;DHT22;54657;52.022;5.534;2022-11-11T17:30:44;12.10;77.10
65046;DHT22;54657;52.022;5.534;2022-11-11T17:33:09;12.00;77.30
65046;DHT22;54657;52.022;5.534;2022-11-11T17:35:35;12.00;77.50
65046;DHT22;54657;52.022;5.534;2022-11-11T17:38:01;11.90;77.50
65046;DHT22;54657;52.022;5.534;2022-11-11T17:40:26;11.90;77.60
65046;DHT22;54657;52.022;5.534;2022-11-11T17:42:52;11.80;77.40
65046;DHT22;54657;52.022;5.534;2022-11-11T17:45:17;11.80;77.40
65046;DHT22;54657;52.022;5.534;2022-11-11T17:47:43;11.80;77.40
65046;DHT22;54657;52.022;5.534;2022-11-11T17:50:09;11.70;77.30
65046;DHT22;54657;52.022;5.534;2022-11-11T17:52:34;11.70;77.30
65046;DHT22;54657;52.022;5.534;2022-11-11T17:55:00;11.70;77.30
65046;DHT22;54657;52.022;5.534;2022-11-11T17:57:25;11.60;77.40
65046;DHT22;54657;52.022;5.534;2022-11-11T17:59:51;11.50;77.50
65046;DHT22;54657;52.022;5.534;2022-11-11T18:02:17;11.40;77.60
65046;DHT22;54657;52.022;5.534;2022-11-11T18:04:44;11.40;77.70
65046;DHT22;54657;52.022;5.534;2022-11-11T18:07:10;11.30;77.70
65046;DHT22;54657;52.022;5.534;2022-11-11T18:09:35;11.30;77.70
65046;DHT22;54657;52.022;5.534;2022-11-11T18:12:01;11.30;77.70
65046;DHT22;54657;52.022;5.534;2022-11-11T18:14:26;11.30;77.60
65046;DHT22;54657;52.022;5.534;2022-11-11T18:16:52;11.20;77.60
65046;DHT22;54657;52.022;5.534;2022-11-11T18:19:17;11.20;77.70
65046;DHT22;54657;52.022;5.534;2022-11-11T18:21:43;11.20;77.70
65046;DHT22;54657;52.022;5.534;2022-11-11T18:24:09;11.10;77.70
65046;DHT22;54657;52.022;5.534;2022-11-11T18:26:36;11.10;77.90
65046;DHT22;54657;52.022;5.534;2022-11-11T18:29:08;11.00;77.80
65046;DHT22;54657;52.022;5.534;2022-11-11T18:31:35;10.90;77.70
65046;DHT22;54657;52.022;5.534;2022-11-11T18:34:01;10.90;77.90
65046;DHT22;54657;52.022;5.534;2022-11-11T18:36:27;10.90;77.90
65046;DHT22;54657;52.022;5.534;2022-11-11T18:38:54;10.90;77.80
65046;DHT22;54657;52.022;5.534;2022-11-11T18:41:21;10.90;77.70
65046;DHT22;54657;52.022;5.534;2022-11-11T18:43:49;10.90;77.70
65046;DHT22;54657;52.022;5.534;2022-11-11T18:46:20;10.90;77.50
65046;DHT22;54657;52.022;5.534;2022-11-11T18:48:46;10.90;77.50
65046;DHT22;54657;52.022;5.534;2022-11-11T18:51:15;10.80;77.40
65046;DHT22;54657;52.022;5.534;2022-11-11T18:53:42;10.80;77.20
65046;DHT22;54657;52.022;5.534;2022-11-11T18:56:13;10.80;77.20
65046;DHT22;54657;52.022;5.534;2022-11-11T18:58:39;10.80;77.20